Bakersfield, California
Current Conditions -  °F | °C
As of 12:54 PM on Tuesday 21 Oct 2014 (Local Time) from KBFL Reporting Station
Clear Clear  
Wind Chill: 20°   Ceiling: Unl
Heat Index: 20°   Visibility: 10mi
Dew Point:   Wind: 5mph
Humidity: 45%   Direction: 140°SE
Pressure: 30.03"   Gusts: NA
Location:  35.37°N, 119.01°W
Report Text: KBFL 211954Z 14004KT 10SM CLR 20/08 A3003 RMK AO2 SLP165 T02000078
Loading
Personal Weather Stations






























Interactive Weather Map New forecast layout! Learn more

10-Day Weather Forecast

Advertisements
Track Severe Weather on mobile